• Join FlightAware (Why Join?)
  • Login
  • US Flag 
11:42AM EDT


 

Airport Tracker/Info


-or-


 

Live Flight TrackerFlight Track Log ✈ SKW5411 ✈ 07-May-2013 ✈ KLAX - KSBP

Flight Track Log - Related Links

Times and Time Zones

All times are in EDT time to prevent confusion due to time zone crossing. See the SKW5411 flight status page for this flight to view local times or setup timezone preferences in your user account.

Time Position Orientation Groundspeed Altitude Reporting Facility
EDT Latitude Longitude Course Direction KTS MPH feet Rate Location/Type
07:23PM 33.9469 -118.4517 287° West 139 160 1,700  Level Los Angeles Center
07:24PM 33.9594 -118.5047 286° West 163 188 3,300 1,560 Climbing Los Angeles Center
07:25PM 33.9750 -118.5636 288° West 183 211 4,900 1,500 Climbing Los Angeles Center
07:26PM 33.9892 -118.6153 288° West 190 219 6,400 1,080 Climbing Los Angeles Center
07:27PM 34.0317 -118.7678 285° West  Level FlightAware Approximate
07:27PM 34.0142 -118.6964 290° West 217 250 7,200  Level Los Angeles Center
07:28PM 34.0542 -118.8605 296° West  Level FlightAware Approximate
07:28PM 34.0336 -118.7692 288° West 226 260 8,800  Level Los Angeles Center
07:29PM 34.0872 -118.9486 287° West  Level FlightAware Approximate
07:29PM 34.0572 -118.8439 291° West 227 261 9,000  Level Los Angeles Center
07:30PM 34.0786 -118.9203 289° West 240 276 9,000  Level Los Angeles Center
07:31PM 34.1214 -118.9836 309° West 244 281 9,000 240 Level Los Angeles Center
07:33PM 34.1644 -119.0467 310° West 245 282 9,500 1,200 Climbing Los Angeles Center
07:34PM 34.2011 -119.1017 309° West 211 243 11,500 1,800 Climbing Los Angeles Center
07:35PM 34.2347 -119.1542 308° West 199 229 13,200 1,620 Climbing Los Angeles Center
07:36PM 34.2725 -119.2164 306° West 195 224 14,900 1,320 Climbing Los Angeles Center
07:37PM 34.3044 -119.2703 306° West 197 227 16,000 480 Climbing Los Angeles Center
07:38PM 34.3425 -119.3294 308° West 222 255 16,000  Level Los Angeles Center
07:39PM 34.3803 -119.3889 308° West 223 257 16,000  Level Los Angeles Center
07:40PM 34.4194 -119.4489 308° West 227 261 16,000  Level Los Angeles Center
07:41PM 34.4600 -119.5067 310° West 227 261 16,000  Level Los Angeles Center
07:42PM 34.5083 -119.5786 309° West 229 264 16,000  Level Los Angeles Center
07:43PM 34.5469 -119.6386 308° West 226 260 16,000  Level Los Angeles Center
07:44PM 34.5844 -119.7000 307° West 227 261 16,000  Level Los Angeles Center
07:45PM 34.6233 -119.7572 310° West 229 264 16,000  Level Los Angeles Center
07:46PM 34.6622 -119.8194 307° West 231 266 16,000  Level Los Angeles Center
07:47PM 34.7092 -119.8928 308° West 229 264 16,000  Level Los Angeles Center
07:48PM 34.7464 -119.9561 306° West 231 266 16,000 -300 Level Los Angeles Center
07:49PM 34.7758 -120.0072 305° West 231 266 15,500 -1,020 Descending Los Angeles Center
07:50PM 34.8186 -120.0744 308° West 241 277 14,200 -1,200 Descending Los Angeles Center
07:50PM 34.8261 -120.0850 311° West 245 282 14,000 -1,200 Descending Los Angeles Center
07:51PM 34.8608 -120.1394 308° West 250 288 13,000 -1,500 Descending Los Angeles Center
07:51PM 34.8758 -120.1583 314° West 250 288 12,500 -1,320 Descending Los Angeles Center
07:52PM 34.9078 -120.2056 310° West 246 283 11,700 -1,080 Descending Los Angeles Center
07:52PM 34.9181 -120.2214 308° West 242 278 11,400 -1,140 Descending Los Angeles Center
07:53PM 34.9447 -120.2672 305° West 235 270 10,600 -1,200 Descending Los Angeles Center
07:53PM 34.9561 -120.2844 309° West 235 270 10,200 -1,200 Descending Los Angeles Center
07:54PM 34.9844 -120.3306 307° West 228 262 9,400 -1,080 Descending Los Angeles Center
07:54PM 34.9944 -120.3447 311° West 229 264 9,100 -1,140 Descending Los Angeles Center
07:55PM 35.0208 -120.3897 306° West 223 257 8,300 -1,200 Descending Los Angeles Center
07:55PM 35.0294 -120.4053 304° West 223 257 7,900 -1,320 Descending Los Angeles Center
07:56PM 35.0608 -120.4450 314° West 216 249 7,000 -1,380 Descending Los Angeles Center
07:56PM 35.0708 -120.4553 320° Northwest 214 246 6,500 -2,100 Descending Los Angeles Center
07:57PM 35.1156 -120.4881 329° Northwest 223 257 4,900 -2,280 Descending Los Angeles Center
07:57PM 35.1342 -120.5025 328° Northwest 221 254 4,200 -1,380 Descending Los Angeles Center
07:58PM 35.1650 -120.5275 326° Northwest 221 254 3,500 -1,560 Descending Los Angeles Center
07:58PM 35.1808 -120.5436 320° Northwest 210 242 2,600 -1,920 Descending Los Angeles Center
07:59PM 35.1986 -120.5747 305° West 177 204 1,600 -1,020 Descending Los Angeles Center
07:59PM 35.2072 -120.5869 311° West 190 219 1,600  Level Los Angeles Center